sensor_id;sensor_type;location;lat;lon;timestamp;P1;durP1;ratioP1;P2;durP2;ratioP2
62580;SDS011;48640;48.770;9.148;2023-06-26T00:01:27;7.63;;;5.55;;
62580;SDS011;48640;48.770;9.148;2023-06-26T00:03:56;8.80;;;5.70;;
62580;SDS011;48640;48.770;9.148;2023-06-26T00:06:24;8.52;;;5.30;;
62580;SDS011;48640;48.770;9.148;2023-06-26T00:08:51;8.57;;;6.50;;
62580;SDS011;48640;48.770;9.148;2023-06-26T00:11:19;8.73;;;5.72;;
62580;SDS011;48640;48.770;9.148;2023-06-26T00:13:46;9.40;;;5.90;;
62580;SDS011;48640;48.770;9.148;2023-06-26T00:16:12;7.38;;;5.50;;
62580;SDS011;48640;48.770;9.148;2023-06-26T00:18:39;7.38;;;5.70;;
62580;SDS011;48640;48.770;9.148;2023-06-26T00:21:06;9.23;;;6.43;;
62580;SDS011;48640;48.770;9.148;2023-06-26T00:23:34;6.55;;;5.55;;
62580;SDS011;48640;48.770;9.148;2023-06-26T00:26:02;8.10;;;6.30;;
62580;SDS011;48640;48.770;9.148;2023-06-26T00:28:30;7.30;;;5.35;;
62580;SDS011;48640;48.770;9.148;2023-06-26T00:30:56;7.88;;;5.97;;
62580;SDS011;48640;48.770;9.148;2023-06-26T00:33:23;6.95;;;5.88;;
62580;SDS011;48640;48.770;9.148;2023-06-26T00:35:50;7.45;;;6.15;;
62580;SDS011;48640;48.770;9.148;2023-06-26T00:38:17;7.32;;;5.47;;
62580;SDS011;48640;48.770;9.148;2023-06-26T00:40:45;7.53;;;6.00;;
62580;SDS011;48640;48.770;9.148;2023-06-26T00:43:12;8.55;;;5.72;;
62580;SDS011;48640;48.770;9.148;2023-06-26T00:45:39;7.38;;;5.68;;
62580;SDS011;48640;48.770;9.148;2023-06-26T00:48:06;7.95;;;6.55;;
62580;SDS011;48640;48.770;9.148;2023-06-26T00:50:32;7.93;;;5.88;;
62580;SDS011;48640;48.770;9.148;2023-06-26T00:52:59;8.23;;;5.78;;
62580;SDS011;48640;48.770;9.148;2023-06-26T00:55:27;7.55;;;5.68;;
62580;SDS011;48640;48.770;9.148;2023-06-26T00:57:55;7.78;;;6.03;;
62580;SDS011;48640;48.770;9.148;2023-06-26T01:00:22;7.93;;;6.00;;
62580;SDS011;48640;48.770;9.148;2023-06-26T01:02:50;8.57;;;5.85;;
62580;SDS011;48640;48.770;9.148;2023-06-26T01:05:16;7.60;;;5.82;;
62580;SDS011;48640;48.770;9.148;2023-06-26T01:07:46;7.90;;;5.22;;
62580;SDS011;48640;48.770;9.148;2023-06-26T01:10:13;8.35;;;6.20;;
62580;SDS011;48640;48.770;9.148;2023-06-26T01:12:40;9.05;;;6.22;;
62580;SDS011;48640;48.770;9.148;2023-06-26T01:15:09;8.73;;;5.65;;
62580;SDS011;48640;48.770;9.148;2023-06-26T01:17:37;8.18;;;5.90;;
62580;SDS011;48640;48.770;9.148;2023-06-26T01:20:10;7.20;;;5.70;;
62580;SDS011;48640;48.770;9.148;2023-06-26T01:22:39;8.35;;;5.78;;
62580;SDS011;48640;48.770;9.148;2023-06-26T01:25:15;8.07;;;5.70;;
62580;SDS011;48640;48.770;9.148;2023-06-26T01:27:49;8.02;;;6.13;;
62580;SDS011;48640;48.770;9.148;2023-06-26T01:30:18;7.03;;;5.50;;
62580;SDS011;48640;48.770;9.148;2023-06-26T01:32:46;7.18;;;5.68;;
62580;SDS011;48640;48.770;9.148;2023-06-26T01:35:15;7.55;;;5.57;;
62580;SDS011;48640;48.770;9.148;2023-06-26T01:37:42;7.07;;;5.28;;
62580;SDS011;48640;48.770;9.148;2023-06-26T01:40:09;8.93;;;5.35;;
62580;SDS011;48640;48.770;9.148;2023-06-26T01:42:36;6.32;;;5.13;;
62580;SDS011;48640;48.770;9.148;2023-06-26T01:45:07;7.78;;;5.40;;
62580;SDS011;48640;48.770;9.148;2023-06-26T01:47:38;8.05;;;5.80;;
62580;SDS011;48640;48.770;9.148;2023-06-26T01:50:11;6.78;;;5.18;;
62580;SDS011;48640;48.770;9.148;2023-06-26T01:52:44;7.75;;;5.30;;
62580;SDS011;48640;48.770;9.148;2023-06-26T01:55:21;7.65;;;5.25;;
62580;SDS011;48640;48.770;9.148;2023-06-26T01:57:54;7.18;;;5.78;;
62580;SDS011;48640;48.770;9.148;2023-06-26T02:00:24;7.30;;;5.40;;
62580;SDS011;48640;48.770;9.148;2023-06-26T02:02:52;7.20;;;4.93;;
62580;SDS011;48640;48.770;9.148;2023-06-26T02:05:19;7.65;;;5.82;;
62580;SDS011;48640;48.770;9.148;2023-06-26T02:07:46;6.93;;;5.32;;
62580;SDS011;48640;48.770;9.148;2023-06-26T02:10:13;7.82;;;6.32;;
62580;SDS011;48640;48.770;9.148;2023-06-26T02:12:47;7.18;;;5.30;;
62580;SDS011;48640;48.770;9.148;2023-06-26T02:15:13;8.70;;;5.50;;
62580;SDS011;48640;48.770;9.148;2023-06-26T02:17:42;6.93;;;5.38;;
62580;SDS011;48640;48.770;9.148;2023-06-26T02:20:13;7.72;;;5.68;;
62580;SDS011;48640;48.770;9.148;2023-06-26T02:22:40;7.57;;;5.55;;
62580;SDS011;48640;48.770;9.148;2023-06-26T02:25:07;6.82;;;5.38;;
62580;SDS011;48640;48.770;9.148;2023-06-26T02:27:34;7.53;;;5.28;;
62580;SDS011;48640;48.770;9.148;2023-06-26T02:30:01;6.88;;;5.20;;
62580;SDS011;48640;48.770;9.148;2023-06-26T02:32:29;7.95;;;5.85;;
62580;SDS011;48640;48.770;9.148;2023-06-26T02:34:57;7.20;;;5.45;;
62580;SDS011;48640;48.770;9.148;2023-06-26T02:37:24;8.40;;;5.50;;
62580;SDS011;48640;48.770;9.148;2023-06-26T02:39:50;8.18;;;5.43;;
62580;SDS011;48640;48.770;9.148;2023-06-26T02:42:17;8.75;;;5.55;;
62580;SDS011;48640;48.770;9.148;2023-06-26T02:44:44;8.50;;;5.85;;
62580;SDS011;48640;48.770;9.148;2023-06-26T02:47:11;5.90;;;4.80;;
62580;SDS011;48640;48.770;9.148;2023-06-26T02:49:38;7.35;;;5.53;;
62580;SDS011;48640;48.770;9.148;2023-06-26T02:52:06;7.95;;;5.38;;
62580;SDS011;48640;48.770;9.148;2023-06-26T02:54:33;7.80;;;5.57;;
62580;SDS011;48640;48.770;9.148;2023-06-26T02:57:00;7.18;;;5.07;;
62580;SDS011;48640;48.770;9.148;2023-06-26T02:59:27;7.50;;;5.43;;
62580;SDS011;48640;48.770;9.148;2023-06-26T03:01:53;7.30;;;5.15;;
62580;SDS011;48640;48.770;9.148;2023-06-26T03:04:20;7.43;;;5.63;;
62580;SDS011;48640;48.770;9.148;2023-06-26T03:06:47;7.15;;;5.28;;
62580;SDS011;48640;48.770;9.148;2023-06-26T03:09:15;9.00;;;6.57;;
62580;SDS011;48640;48.770;9.148;2023-06-26T03:11:43;8.32;;;5.85;;
62580;SDS011;48640;48.770;9.148;2023-06-26T03:14:09;6.80;;;5.43;;
62580;SDS011;48640;48.770;9.148;2023-06-26T03:16:36;7.43;;;5.13;;
62580;SDS011;48640;48.770;9.148;2023-06-26T03:19:03;9.80;;;7.35;;
62580;SDS011;48640;48.770;9.148;2023-06-26T03:21:30;6.68;;;4.85;;
62580;SDS011;48640;48.770;9.148;2023-06-26T03:23:58;7.43;;;5.65;;
62580;SDS011;48640;48.770;9.148;2023-06-26T03:26:26;8.35;;;6.22;;
62580;SDS011;48640;48.770;9.148;2023-06-26T03:28:53;8.13;;;5.70;;
62580;SDS011;48640;48.770;9.148;2023-06-26T03:31:20;8.00;;;5.47;;
62580;SDS011;48640;48.770;9.148;2023-06-26T03:33:47;6.30;;;5.28;;
62580;SDS011;48640;48.770;9.148;2023-06-26T03:36:14;6.57;;;4.90;;
62580;SDS011;48640;48.770;9.148;2023-06-26T03:38:41;7.53;;;5.68;;
62580;SDS011;48640;48.770;9.148;2023-06-26T03:41:07;8.45;;;5.93;;
62580;SDS011;48640;48.770;9.148;2023-06-26T03:43:36;7.60;;;5.72;;
62580;SDS011;48640;48.770;9.148;2023-06-26T03:46:02;7.45;;;5.78;;
62580;SDS011;48640;48.770;9.148;2023-06-26T03:48:29;7.18;;;5.20;;
62580;SDS011;48640;48.770;9.148;2023-06-26T03:50:56;7.40;;;5.55;;
62580;SDS011;48640;48.770;9.148;2023-06-26T03:53:24;8.07;;;6.20;;
62580;SDS011;48640;48.770;9.148;2023-06-26T03:55:50;7.30;;;5.38;;
62580;SDS011;48640;48.770;9.148;2023-06-26T03:58:17;6.38;;;5.20;;
62580;SDS011;48640;48.770;9.148;2023-06-26T04:00:45;8.15;;;5.93;;
62580;SDS011;48640;48.770;9.148;2023-06-26T04:03:13;8.50;;;5.53;;
62580;SDS011;48640;48.770;9.148;2023-06-26T04:05:40;9.43;;;5.60;;
62580;SDS011;48640;48.770;9.148;2023-06-26T04:08:07;6.18;;;4.63;;
62580;SDS011;48640;48.770;9.148;2023-06-26T04:10:34;6.75;;;5.10;;
62580;SDS011;48640;48.770;9.148;2023-06-26T04:13:02;7.22;;;5.30;;
62580;SDS011;48640;48.770;9.148;2023-06-26T04:15:29;8.73;;;5.57;;
62580;SDS011;48640;48.770;9.148;2023-06-26T04:17:57;8.70;;;5.78;;
62580;SDS011;48640;48.770;9.148;2023-06-26T04:20:24;7.07;;;5.95;;
62580;SDS011;48640;48.770;9.148;2023-06-26T04:22:51;7.13;;;5.95;;
62580;SDS011;48640;48.770;9.148;2023-06-26T04:25:18;7.88;;;5.53;;
62580;SDS011;48640;48.770;9.148;2023-06-26T04:27:44;6.88;;;5.18;;
62580;SDS011;48640;48.770;9.148;2023-06-26T04:30:12;7.05;;;5.50;;
62580;SDS011;48640;48.770;9.148;2023-06-26T04:32:39;6.43;;;5.13;;
62580;SDS011;48640;48.770;9.148;2023-06-26T04:35:07;8.30;;;4.93;;
62580;SDS011;48640;48.770;9.148;2023-06-26T04:37:35;7.65;;;5.70;;
62580;SDS011;48640;48.770;9.148;2023-06-26T04:40:04;6.93;;;5.07;;
62580;SDS011;48640;48.770;9.148;2023-06-26T04:42:32;7.60;;;5.25;;
62580;SDS011;48640;48.770;9.148;2023-06-26T04:44:59;7.03;;;5.68;;
62580;SDS011;48640;48.770;9.148;2023-06-26T04:47:27;8.20;;;5.47;;
62580;SDS011;48640;48.770;9.148;2023-06-26T04:49:54;7.53;;;5.50;;
62580;SDS011;48640;48.770;9.148;2023-06-26T04:52:22;7.35;;;5.25;;
62580;SDS011;48640;48.770;9.148;2023-06-26T04:54:49;7.78;;;5.72;;
62580;SDS011;48640;48.770;9.148;2023-06-26T04:57:16;7.82;;;5.90;;
62580;SDS011;48640;48.770;9.148;2023-06-26T04:59:43;8.35;;;5.22;;
62580;SDS011;48640;48.770;9.148;2023-06-26T05:02:10;7.78;;;5.85;;
62580;SDS011;48640;48.770;9.148;2023-06-26T05:04:39;6.72;;;5.10;;
62580;SDS011;48640;48.770;9.148;2023-06-26T05:07:07;7.85;;;5.55;;
62580;SDS011;48640;48.770;9.148;2023-06-26T05:09:35;7.97;;;5.35;;
62580;SDS011;48640;48.770;9.148;2023-06-26T05:12:02;8.85;;;5.50;;
62580;SDS011;48640;48.770;9.148;2023-06-26T05:14:30;7.13;;;5.55;;
62580;SDS011;48640;48.770;9.148;2023-06-26T05:16:56;8.60;;;5.82;;
62580;SDS011;48640;48.770;9.148;2023-06-26T05:19:23;8.63;;;5.85;;
62580;SDS011;48640;48.770;9.148;2023-06-26T05:21:50;7.20;;;5.28;;
62580;SDS011;48640;48.770;9.148;2023-06-26T05:24:18;8.27;;;5.70;;
62580;SDS011;48640;48.770;9.148;2023-06-26T05:26:47;7.55;;;4.80;;
62580;SDS011;48640;48.770;9.148;2023-06-26T05:29:15;6.13;;;4.60;;
62580;SDS011;48640;48.770;9.148;2023-06-26T05:31:42;9.02;;;5.85;;
62580;SDS011;48640;48.770;9.148;2023-06-26T05:34:12;15.00;;;5.55;;
62580;SDS011;48640;48.770;9.148;2023-06-26T05:36:40;7.82;;;5.90;;
62580;SDS011;48640;48.770;9.148;2023-06-26T05:39:08;6.82;;;4.90;;
62580;SDS011;48640;48.770;9.148;2023-06-26T05:41:36;9.23;;;5.32;;
62580;SDS011;48640;48.770;9.148;2023-06-26T05:44:05;6.22;;;5.15;;
62580;SDS011;48640;48.770;9.148;2023-06-26T05:46:32;6.78;;;4.20;;
62580;SDS011;48640;48.770;9.148;2023-06-26T05:48:58;6.05;;;4.57;;
62580;SDS011;48640;48.770;9.148;2023-06-26T05:51:26;5.78;;;4.78;;
62580;SDS011;48640;48.770;9.148;2023-06-26T05:53:53;6.28;;;4.78;;
62580;SDS011;48640;48.770;9.148;2023-06-26T05:56:20;5.70;;;4.70;;
62580;SDS011;48640;48.770;9.148;2023-06-26T05:58:48;5.85;;;4.40;;
62580;SDS011;48640;48.770;9.148;2023-06-26T06:01:17;6.72;;;4.88;;
62580;SDS011;48640;48.770;9.148;2023-06-26T06:03:44;5.72;;;4.43;;
62580;SDS011;48640;48.770;9.148;2023-06-26T06:06:11;5.20;;;4.30;;
62580;SDS011;48640;48.770;9.148;2023-06-26T06:08:38;6.43;;;4.68;;
62580;SDS011;48640;48.770;9.148;2023-06-26T06:11:05;7.63;;;5.28;;
62580;SDS011;48640;48.770;9.148;2023-06-26T06:13:32;9.48;;;5.60;;
62580;SDS011;48640;48.770;9.148;2023-06-26T06:15:58;6.88;;;5.03;;
62580;SDS011;48640;48.770;9.148;2023-06-26T06:18:27;6.50;;;5.00;;
62580;SDS011;48640;48.770;9.148;2023-06-26T06:20:54;5.82;;;4.68;;
62580;SDS011;48640;48.770;9.148;2023-06-26T06:23:21;8.02;;;4.57;;
62580;SDS011;48640;48.770;9.148;2023-06-26T06:25:48;5.55;;;3.88;;
62580;SDS011;48640;48.770;9.148;2023-06-26T06:28:15;9.07;;;4.55;;
62580;SDS011;48640;48.770;9.148;2023-06-26T06:30:42;8.00;;;5.25;;
62580;SDS011;48640;48.770;9.148;2023-06-26T06:33:09;5.93;;;4.13;;
62580;SDS011;48640;48.770;9.148;2023-06-26T06:35:37;5.13;;;4.10;;
62580;SDS011;48640;48.770;9.148;2023-06-26T06:38:04;6.07;;;4.20;;
62580;SDS011;48640;48.770;9.148;2023-06-26T06:40:31;5.72;;;4.43;;
62580;SDS011;48640;48.770;9.148;2023-06-26T06:42:58;5.30;;;4.13;;
62580;SDS011;48640;48.770;9.148;2023-06-26T06:45:25;5.53;;;4.47;;
62580;SDS011;48640;48.770;9.148;2023-06-26T06:47:51;5.80;;;4.03;;
62580;SDS011;48640;48.770;9.148;2023-06-26T06:50:18;7.07;;;4.57;;
62580;SDS011;48640;48.770;9.148;2023-06-26T06:52:46;5.68;;;4.32;;
62580;SDS011;48640;48.770;9.148;2023-06-26T06:55:14;5.22;;;4.40;;
62580;SDS011;48640;48.770;9.148;2023-06-26T06:57:41;4.50;;;3.78;;
62580;SDS011;48640;48.770;9.148;2023-06-26T07:00:08;5.05;;;3.88;;
62580;SDS011;48640;48.770;9.148;2023-06-26T07:05:03;6.13;;;3.78;;
62580;SDS011;48640;48.770;9.148;2023-06-26T07:07:31;5.27;;;3.93;;
62580;SDS011;48640;48.770;9.148;2023-06-26T07:10:01;6.10;;;4.07;;
62580;SDS011;48640;48.770;9.148;2023-06-26T07:12:30;6.68;;;3.97;;
62580;SDS011;48640;48.770;9.148;2023-06-26T07:14:56;6.20;;;3.90;;
62580;SDS011;48640;48.770;9.148;2023-06-26T07:17:23;6.30;;;4.43;;
62580;SDS011;48640;48.770;9.148;2023-06-26T07:19:50;6.28;;;4.10;;
62580;SDS011;48640;48.770;9.148;2023-06-26T07:22:18;5.80;;;4.07;;
62580;SDS011;48640;48.770;9.148;2023-06-26T07:24:45;6.80;;;4.28;;
62580;SDS011;48640;48.770;9.148;2023-06-26T07:27:14;4.60;;;4.07;;
62580;SDS011;48640;48.770;9.148;2023-06-26T07:29:41;4.95;;;4.10;;
62580;SDS011;48640;48.770;9.148;2023-06-26T07:32:08;6.43;;;4.35;;
62580;SDS011;48640;48.770;9.148;2023-06-26T07:34:36;6.35;;;4.13;;
62580;SDS011;48640;48.770;9.148;2023-06-26T07:37:03;4.88;;;4.30;;
62580;SDS011;48640;48.770;9.148;2023-06-26T07:39:30;6.45;;;4.53;;
62580;SDS011;48640;48.770;9.148;2023-06-26T07:41:57;5.88;;;4.35;;
62580;SDS011;48640;48.770;9.148;2023-06-26T07:44:25;5.65;;;3.55;;
62580;SDS011;48640;48.770;9.148;2023-06-26T07:49:31;5.28;;;4.07;;
62580;SDS011;48640;48.770;9.148;2023-06-26T07:51:58;6.32;;;4.07;;
62580;SDS011;48640;48.770;9.148;2023-06-26T07:54:25;4.47;;;3.58;;
62580;SDS011;48640;48.770;9.148;2023-06-26T07:56:52;6.82;;;4.13;;
62580;SDS011;48640;48.770;9.148;2023-06-26T07:59:20;6.05;;;3.47;;
62580;SDS011;48640;48.770;9.148;2023-06-26T08:01:49;4.88;;;3.67;;
62580;SDS011;48640;48.770;9.148;2023-06-26T08:04:17;6.45;;;3.97;;
62580;SDS011;48640;48.770;9.148;2023-06-26T08:06:45;11.38;;;4.22;;
62580;SDS011;48640;48.770;9.148;2023-06-26T08:09:13;6.28;;;4.60;;
62580;SDS011;48640;48.770;9.148;2023-06-26T08:11:40;7.85;;;5.32;;
62580;SDS011;48640;48.770;9.148;2023-06-26T08:14:07;6.40;;;4.47;;
62580;SDS011;48640;48.770;9.148;2023-06-26T08:16:34;6.20;;;4.00;;
62580;SDS011;48640;48.770;9.148;2023-06-26T08:19:02;4.93;;;3.88;;
62580;SDS011;48640;48.770;9.148;2023-06-26T08:21:29;9.40;;;4.00;;
62580;SDS011;48640;48.770;9.148;2023-06-26T08:23:56;7.35;;;4.28;;
62580;SDS011;48640;48.770;9.148;2023-06-26T08:26:23;4.38;;;3.50;;
62580;SDS011;48640;48.770;9.148;2023-06-26T08:28:50;7.68;;;3.78;;
62580;SDS011;48640;48.770;9.148;2023-06-26T08:31:17;4.03;;;3.30;;
62580;SDS011;48640;48.770;9.148;2023-06-26T08:33:44;6.07;;;3.90;;
62580;SDS011;48640;48.770;9.148;2023-06-26T08:36:12;5.57;;;3.45;;
62580;SDS011;48640;48.770;9.148;2023-06-26T08:38:39;4.30;;;3.40;;
62580;SDS011;48640;48.770;9.148;2023-06-26T08:41:06;7.00;;;4.07;;
62580;SDS011;48640;48.770;9.148;2023-06-26T08:43:33;5.32;;;3.40;;
62580;SDS011;48640;48.770;9.148;2023-06-26T08:46:01;7.05;;;3.78;;
62580;SDS011;48640;48.770;9.148;2023-06-26T08:48:28;4.18;;;3.15;;
62580;SDS011;48640;48.770;9.148;2023-06-26T08:50:57;5.07;;;3.53;;
62580;SDS011;48640;48.770;9.148;2023-06-26T08:53:33;4.25;;;3.30;;
62580;SDS011;48640;48.770;9.148;2023-06-26T08:56:06;5.40;;;3.30;;
62580;SDS011;48640;48.770;9.148;2023-06-26T08:58:34;4.93;;;3.70;;
62580;SDS011;48640;48.770;9.148;2023-06-26T09:01:02;3.80;;;3.22;;
62580;SDS011;48640;48.770;9.148;2023-06-26T09:03:31;4.25;;;3.78;;
62580;SDS011;48640;48.770;9.148;2023-06-26T09:05:58;5.10;;;3.73;;
62580;SDS011;48640;48.770;9.148;2023-06-26T09:08:25;6.32;;;3.53;;
62580;SDS011;48640;48.770;9.148;2023-06-26T09:10:53;5.30;;;3.47;;
62580;SDS011;48640;48.770;9.148;2023-06-26T09:13:20;4.05;;;3.17;;
62580;SDS011;48640;48.770;9.148;2023-06-26T09:15:47;4.80;;;4.30;;
62580;SDS011;48640;48.770;9.148;2023-06-26T09:18:16;5.32;;;3.47;;
62580;SDS011;48640;48.770;9.148;2023-06-26T09:20:44;5.32;;;4.47;;
62580;SDS011;48640;48.770;9.148;2023-06-26T09:23:11;6.03;;;3.75;;
62580;SDS011;48640;48.770;9.148;2023-06-26T09:25:39;5.10;;;3.92;;
62580;SDS011;48640;48.770;9.148;2023-06-26T09:28:08;5.90;;;3.42;;
62580;SDS011;48640;48.770;9.148;2023-06-26T09:30:35;4.78;;;3.45;;
62580;SDS011;48640;48.770;9.148;2023-06-26T09:33:12;6.53;;;3.27;;
62580;SDS011;48640;48.770;9.148;2023-06-26T09:35:40;5.47;;;3.58;;
62580;SDS011;48640;48.770;9.148;2023-06-26T09:38:07;7.03;;;3.63;;
62580;SDS011;48640;48.770;9.148;2023-06-26T09:40:34;6.55;;;3.67;;
62580;SDS011;48640;48.770;9.148;2023-06-26T09:43:03;3.85;;;3.45;;
62580;SDS011;48640;48.770;9.148;2023-06-26T09:45:32;4.97;;;3.15;;
62580;SDS011;48640;48.770;9.148;2023-06-26T09:47:59;4.30;;;3.33;;
62580;SDS011;48640;48.770;9.148;2023-06-26T09:50:28;3.83;;;3.35;;
62580;SDS011;48640;48.770;9.148;2023-06-26T09:52:57;4.05;;;3.40;;
62580;SDS011;48640;48.770;9.148;2023-06-26T09:55:24;4.43;;;3.40;;
62580;SDS011;48640;48.770;9.148;2023-06-26T09:57:52;7.10;;;4.10;;
62580;SDS011;48640;48.770;9.148;2023-06-26T10:00:22;4.53;;;4.07;;
62580;SDS011;48640;48.770;9.148;2023-06-26T10:02:50;4.32;;;3.55;;
62580;SDS011;48640;48.770;9.148;2023-06-26T10:05:17;6.88;;;4.25;;
62580;SDS011;48640;48.770;9.148;2023-06-26T10:07:44;5.35;;;3.80;;
